الصفحة الرئيسية
METAR-TAF:

METAR-TAF

مطار :

Charleville, أستراليا

دائرة عرض: 26-24-45S, خط طول: 146-15-44E, ارتفاع: 306 متر

مراقبة الطقس الحالي

تاريخ ووقت الإصدار 1ساعة و 9 دقيقة قبل الساعة 20:00UTC
ريح 4 عقدة من الجنوب الشرقي
درجة الحرارة 10°درجة مئوية
الرطوبة 87%
ضغط 1020 hPa
الرؤية 10 كم أو أكثر

METAR: YBCV 172000Z AUTO 14004KT 9999 // NCD 10/08 Q1020

زمن: 07:09 (21:09 UTC)


TAF: مفقودة

أرصاد الطقس والتوقعات من أكثر من 4000 مطار (تقارير الطقس للمطار METAR والتنبؤ بالطقس بالمطارTAF).

المحطات المتاحة هي النقط الصفراء والحمراء على الخريطة.

حرك المؤشر فوق النقطة لمعرفة اسم المحطة.

ثم انقر لمعرفة أرصاد وتوقعات الطقس.

لتغيير الخارطة: اضغط على الأزرار الخضراء مع رمز الصليب الأسود للتكبير. على الزر الأخضر مع شرطة للتصغير، أو على الأسهم الخضراء للخرائط المجاورة.


METAR-TAF: